sensor_id;sensor_type;location;lat;lon;timestamp;P1;durP1;ratioP1;P2;durP2;ratioP2
60478;SDS011;46321;48.398;11.754;2023-06-14T00:00:48;5.65;;;3.70;;
60478;SDS011;46321;48.398;11.754;2023-06-14T00:03:14;5.75;;;3.47;;
60478;SDS011;46321;48.398;11.754;2023-06-14T00:05:42;5.93;;;3.00;;
60478;SDS011;46321;48.398;11.754;2023-06-14T00:08:08;5.32;;;3.75;;
60478;SDS011;46321;48.398;11.754;2023-06-14T00:10:35;4.97;;;3.42;;
60478;SDS011;46321;48.398;11.754;2023-06-14T00:13:01;8.68;;;4.25;;
60478;SDS011;46321;48.398;11.754;2023-06-14T00:15:27;6.43;;;3.83;;
60478;SDS011;46321;48.398;11.754;2023-06-14T00:17:53;5.00;;;3.55;;
60478;SDS011;46321;48.398;11.754;2023-06-14T00:20:19;4.93;;;3.33;;
60478;SDS011;46321;48.398;11.754;2023-06-14T00:22:45;5.68;;;3.58;;
60478;SDS011;46321;48.398;11.754;2023-06-14T00:25:11;5.75;;;3.58;;
60478;SDS011;46321;48.398;11.754;2023-06-14T00:27:36;6.25;;;3.50;;
60478;SDS011;46321;48.398;11.754;2023-06-14T00:30:01;9.20;;;3.80;;
60478;SDS011;46321;48.398;11.754;2023-06-14T00:32:27;5.80;;;3.72;;
60478;SDS011;46321;48.398;11.754;2023-06-14T00:34:52;6.60;;;3.63;;
60478;SDS011;46321;48.398;11.754;2023-06-14T00:37:18;7.18;;;4.00;;
60478;SDS011;46321;48.398;11.754;2023-06-14T00:39:43;7.88;;;3.72;;
60478;SDS011;46321;48.398;11.754;2023-06-14T00:42:08;6.00;;;3.85;;
60478;SDS011;46321;48.398;11.754;2023-06-14T00:44:34;6.32;;;3.65;;
60478;SDS011;46321;48.398;11.754;2023-06-14T00:46:59;6.20;;;3.67;;
60478;SDS011;46321;48.398;11.754;2023-06-14T00:49:25;9.20;;;4.03;;
60478;SDS011;46321;48.398;11.754;2023-06-14T00:51:50;8.20;;;3.92;;
60478;SDS011;46321;48.398;11.754;2023-06-14T00:54:16;8.57;;;4.45;;
60478;SDS011;46321;48.398;11.754;2023-06-14T00:56:41;5.13;;;3.35;;
60478;SDS011;46321;48.398;11.754;2023-06-14T00:59:08;7.85;;;3.85;;
60478;SDS011;46321;48.398;11.754;2023-06-14T01:01:36;5.45;;;4.22;;
60478;SDS011;46321;48.398;11.754;2023-06-14T01:04:02;5.97;;;3.95;;
60478;SDS011;46321;48.398;11.754;2023-06-14T01:06:33;6.75;;;4.15;;
60478;SDS011;46321;48.398;11.754;2023-06-14T01:12:36;10.10;;;4.07;;
60478;SDS011;46321;48.398;11.754;2023-06-14T01:15:09;5.45;;;3.95;;
60478;SDS011;46321;48.398;11.754;2023-06-14T01:17:35;6.30;;;3.50;;
60478;SDS011;46321;48.398;11.754;2023-06-14T01:20:06;6.30;;;3.95;;
60478;SDS011;46321;48.398;11.754;2023-06-14T01:22:35;7.15;;;3.95;;
60478;SDS011;46321;48.398;11.754;2023-06-14T01:25:01;8.60;;;4.43;;
60478;SDS011;46321;48.398;11.754;2023-06-14T01:27:26;6.53;;;4.30;;
60478;SDS011;46321;48.398;11.754;2023-06-14T01:29:55;5.55;;;3.97;;
60478;SDS011;46321;48.398;11.754;2023-06-14T01:32:26;5.30;;;3.80;;
60478;SDS011;46321;48.398;11.754;2023-06-14T01:34:52;5.38;;;3.95;;
60478;SDS011;46321;48.398;11.754;2023-06-14T01:37:17;5.65;;;3.45;;
60478;SDS011;46321;48.398;11.754;2023-06-14T01:39:44;6.43;;;3.65;;
60478;SDS011;46321;48.398;11.754;2023-06-14T01:42:11;5.63;;;3.75;;
60478;SDS011;46321;48.398;11.754;2023-06-14T01:44:38;5.40;;;3.80;;
60478;SDS011;46321;48.398;11.754;2023-06-14T01:47:04;6.70;;;4.03;;
60478;SDS011;46321;48.398;11.754;2023-06-14T01:49:33;7.50;;;3.97;;
60478;SDS011;46321;48.398;11.754;2023-06-14T01:51:59;8.93;;;3.80;;
60478;SDS011;46321;48.398;11.754;2023-06-14T01:54:25;6.78;;;3.83;;
60478;SDS011;46321;48.398;11.754;2023-06-14T01:56:50;11.32;;;4.40;;
60478;SDS011;46321;48.398;11.754;2023-06-14T01:59:16;6.63;;;4.00;;
60478;SDS011;46321;48.398;11.754;2023-06-14T02:01:41;5.22;;;4.00;;
60478;SDS011;46321;48.398;11.754;2023-06-14T02:04:06;6.75;;;4.13;;
60478;SDS011;46321;48.398;11.754;2023-06-14T02:06:31;8.10;;;3.92;;
60478;SDS011;46321;48.398;11.754;2023-06-14T02:08:59;7.40;;;4.00;;
60478;SDS011;46321;48.398;11.754;2023-06-14T02:11:25;6.65;;;3.90;;
60478;SDS011;46321;48.398;11.754;2023-06-14T02:13:52;5.95;;;4.28;;
60478;SDS011;46321;48.398;11.754;2023-06-14T02:16:17;6.22;;;3.85;;
60478;SDS011;46321;48.398;11.754;2023-06-14T02:18:43;6.85;;;3.80;;
60478;SDS011;46321;48.398;11.754;2023-06-14T02:21:08;5.80;;;3.72;;
60478;SDS011;46321;48.398;11.754;2023-06-14T02:23:33;6.38;;;3.83;;
60478;SDS011;46321;48.398;11.754;2023-06-14T02:25:59;6.80;;;4.22;;
60478;SDS011;46321;48.398;11.754;2023-06-14T02:28:24;6.80;;;3.35;;
60478;SDS011;46321;48.398;11.754;2023-06-14T02:30:49;6.43;;;4.15;;
60478;SDS011;46321;48.398;11.754;2023-06-14T02:33:15;5.60;;;3.92;;
60478;SDS011;46321;48.398;11.754;2023-06-14T02:35:40;5.45;;;4.00;;
60478;SDS011;46321;48.398;11.754;2023-06-14T02:38:05;6.55;;;4.28;;
60478;SDS011;46321;48.398;11.754;2023-06-14T02:40:31;6.07;;;4.03;;
60478;SDS011;46321;48.398;11.754;2023-06-14T02:42:56;8.15;;;4.07;;
60478;SDS011;46321;48.398;11.754;2023-06-14T02:45:21;5.30;;;3.75;;
60478;SDS011;46321;48.398;11.754;2023-06-14T02:47:47;5.18;;;3.63;;
60478;SDS011;46321;48.398;11.754;2023-06-14T02:50:13;6.72;;;4.07;;
60478;SDS011;46321;48.398;11.754;2023-06-14T02:52:38;5.70;;;3.53;;
60478;SDS011;46321;48.398;11.754;2023-06-14T02:55:06;6.00;;;3.72;;
60478;SDS011;46321;48.398;11.754;2023-06-14T02:57:33;7.18;;;3.53;;
60478;SDS011;46321;48.398;11.754;2023-06-14T02:59:58;8.30;;;4.03;;
60478;SDS011;46321;48.398;11.754;2023-06-14T03:02:23;4.85;;;3.33;;
60478;SDS011;46321;48.398;11.754;2023-06-14T03:04:49;6.05;;;3.70;;
60478;SDS011;46321;48.398;11.754;2023-06-14T03:07:14;5.35;;;3.55;;
60478;SDS011;46321;48.398;11.754;2023-06-14T03:09:44;4.50;;;3.30;;
60478;SDS011;46321;48.398;11.754;2023-06-14T03:12:10;9.23;;;4.05;;
60478;SDS011;46321;48.398;11.754;2023-06-14T03:14:36;5.90;;;3.80;;
60478;SDS011;46321;48.398;11.754;2023-06-14T03:17:04;7.45;;;3.85;;
60478;SDS011;46321;48.398;11.754;2023-06-14T03:19:30;6.05;;;3.65;;
60478;SDS011;46321;48.398;11.754;2023-06-14T03:21:55;6.50;;;3.97;;
60478;SDS011;46321;48.398;11.754;2023-06-14T03:24:24;6.00;;;3.67;;
60478;SDS011;46321;48.398;11.754;2023-06-14T03:26:52;7.57;;;3.80;;
60478;SDS011;46321;48.398;11.754;2023-06-14T03:29:17;7.63;;;3.83;;
60478;SDS011;46321;48.398;11.754;2023-06-14T03:31:56;8.95;;;3.88;;
60478;SDS011;46321;48.398;11.754;2023-06-14T03:34:25;9.85;;;3.90;;
60478;SDS011;46321;48.398;11.754;2023-06-14T03:36:51;6.38;;;4.30;;
60478;SDS011;46321;48.398;11.754;2023-06-14T03:39:16;7.55;;;3.55;;
60478;SDS011;46321;48.398;11.754;2023-06-14T03:41:42;7.63;;;4.20;;
60478;SDS011;46321;48.398;11.754;2023-06-14T03:44:07;6.72;;;3.85;;
60478;SDS011;46321;48.398;11.754;2023-06-14T03:46:32;5.15;;;3.58;;
60478;SDS011;46321;48.398;11.754;2023-06-14T03:48:57;8.27;;;4.00;;
60478;SDS011;46321;48.398;11.754;2023-06-14T03:51:23;6.78;;;3.50;;
60478;SDS011;46321;48.398;11.754;2023-06-14T03:53:50;4.93;;;3.50;;
60478;SDS011;46321;48.398;11.754;2023-06-14T03:56:15;5.18;;;3.78;;
60478;SDS011;46321;48.398;11.754;2023-06-14T03:58:40;7.70;;;3.72;;
60478;SDS011;46321;48.398;11.754;2023-06-14T04:01:06;8.63;;;3.70;;
60478;SDS011;46321;48.398;11.754;2023-06-14T04:03:32;7.15;;;3.53;;
60478;SDS011;46321;48.398;11.754;2023-06-14T04:05:58;5.43;;;3.60;;
60478;SDS011;46321;48.398;11.754;2023-06-14T04:08:24;7.65;;;3.70;;
60478;SDS011;46321;48.398;11.754;2023-06-14T04:10:50;5.63;;;3.50;;
60478;SDS011;46321;48.398;11.754;2023-06-14T04:13:15;5.25;;;3.35;;
60478;SDS011;46321;48.398;11.754;2023-06-14T04:15:40;8.13;;;3.40;;
60478;SDS011;46321;48.398;11.754;2023-06-14T04:18:07;6.90;;;3.55;;
60478;SDS011;46321;48.398;11.754;2023-06-14T04:20:33;6.60;;;3.72;;
60478;SDS011;46321;48.398;11.754;2023-06-14T04:23:10;5.32;;;3.58;;
60478;SDS011;46321;48.398;11.754;2023-06-14T04:25:39;5.47;;;3.50;;
60478;SDS011;46321;48.398;11.754;2023-06-14T04:28:05;5.18;;;3.30;;
60478;SDS011;46321;48.398;11.754;2023-06-14T04:30:33;6.95;;;4.00;;
60478;SDS011;46321;48.398;11.754;2023-06-14T04:33:00;5.97;;;3.75;;
60478;SDS011;46321;48.398;11.754;2023-06-14T04:35:25;7.60;;;3.58;;
60478;SDS011;46321;48.398;11.754;2023-06-14T04:37:52;12.52;;;4.00;;
60478;SDS011;46321;48.398;11.754;2023-06-14T04:40:18;7.55;;;3.50;;
60478;SDS011;46321;48.398;11.754;2023-06-14T04:42:43;8.88;;;3.85;;
60478;SDS011;46321;48.398;11.754;2023-06-14T04:45:09;5.75;;;3.72;;
60478;SDS011;46321;48.398;11.754;2023-06-14T04:47:35;6.10;;;3.70;;
60478;SDS011;46321;48.398;11.754;2023-06-14T04:50:00;5.95;;;4.10;;
60478;SDS011;46321;48.398;11.754;2023-06-14T04:52:28;5.05;;;3.40;;
60478;SDS011;46321;48.398;11.754;2023-06-14T04:54:54;5.80;;;3.90;;
60478;SDS011;46321;48.398;11.754;2023-06-14T04:57:20;8.88;;;4.13;;
60478;SDS011;46321;48.398;11.754;2023-06-14T04:59:47;6.82;;;3.72;;
60478;SDS011;46321;48.398;11.754;2023-06-14T05:02:12;4.20;;;3.22;;
60478;SDS011;46321;48.398;11.754;2023-06-14T05:04:37;6.35;;;3.25;;
60478;SDS011;46321;48.398;11.754;2023-06-14T05:07:09;8.00;;;3.75;;
60478;SDS011;46321;48.398;11.754;2023-06-14T05:09:37;6.03;;;3.83;;
60478;SDS011;46321;48.398;11.754;2023-06-14T05:12:03;5.32;;;3.65;;
60478;SDS011;46321;48.398;11.754;2023-06-14T05:14:28;7.60;;;4.05;;
60478;SDS011;46321;48.398;11.754;2023-06-14T05:16:54;9.60;;;4.00;;
60478;SDS011;46321;48.398;11.754;2023-06-14T05:19:19;6.07;;;3.65;;
60478;SDS011;46321;48.398;11.754;2023-06-14T05:21:45;5.45;;;3.58;;
60478;SDS011;46321;48.398;11.754;2023-06-14T05:24:12;6.57;;;3.63;;
60478;SDS011;46321;48.398;11.754;2023-06-14T05:26:37;6.72;;;3.80;;
60478;SDS011;46321;48.398;11.754;2023-06-14T05:29:03;5.95;;;3.88;;
60478;SDS011;46321;48.398;11.754;2023-06-14T05:31:28;5.70;;;3.88;;
60478;SDS011;46321;48.398;11.754;2023-06-14T05:33:54;6.05;;;3.80;;
60478;SDS011;46321;48.398;11.754;2023-06-14T05:36:20;7.80;;;3.58;;
60478;SDS011;46321;48.398;11.754;2023-06-14T05:38:46;10.20;;;3.70;;
60478;SDS011;46321;48.398;11.754;2023-06-14T05:41:11;5.70;;;3.72;;
60478;SDS011;46321;48.398;11.754;2023-06-14T05:43:37;8.43;;;3.70;;
60478;SDS011;46321;48.398;11.754;2023-06-14T05:46:02;6.80;;;3.97;;
60478;SDS011;46321;48.398;11.754;2023-06-14T05:48:28;6.47;;;3.60;;
60478;SDS011;46321;48.398;11.754;2023-06-14T05:50:53;9.52;;;3.97;;
60478;SDS011;46321;48.398;11.754;2023-06-14T05:53:19;7.90;;;3.67;;
60478;SDS011;46321;48.398;11.754;2023-06-14T05:55:44;7.03;;;3.97;;
60478;SDS011;46321;48.398;11.754;2023-06-14T05:58:09;5.63;;;3.67;;
60478;SDS011;46321;48.398;11.754;2023-06-14T06:00:35;7.60;;;3.88;;
60478;SDS011;46321;48.398;11.754;2023-06-14T06:03:01;5.07;;;3.67;;
60478;SDS011;46321;48.398;11.754;2023-06-14T06:05:26;5.73;;;3.57;;
60478;SDS011;46321;48.398;11.754;2023-06-14T06:07:51;5.35;;;3.20;;
60478;SDS011;46321;48.398;11.754;2023-06-14T06:10:17;4.30;;;3.05;;
60478;SDS011;46321;48.398;11.754;2023-06-14T06:12:42;5.22;;;3.78;;
60478;SDS011;46321;48.398;11.754;2023-06-14T06:15:08;4.85;;;3.50;;
60478;SDS011;46321;48.398;11.754;2023-06-14T06:17:36;7.22;;;3.55;;
60478;SDS011;46321;48.398;11.754;2023-06-14T06:20:02;6.25;;;3.85;;
60478;SDS011;46321;48.398;11.754;2023-06-14T06:22:30;5.55;;;3.47;;
60478;SDS011;46321;48.398;11.754;2023-06-14T06:24:55;5.35;;;3.55;;
60478;SDS011;46321;48.398;11.754;2023-06-14T06:27:21;6.75;;;3.33;;
60478;SDS011;46321;48.398;11.754;2023-06-14T06:29:46;7.57;;;3.40;;
60478;SDS011;46321;48.398;11.754;2023-06-14T06:32:13;4.70;;;3.45;;
60478;SDS011;46321;48.398;11.754;2023-06-14T06:34:38;7.07;;;4.00;;
60478;SDS011;46321;48.398;11.754;2023-06-14T06:37:04;4.82;;;3.45;;
60478;SDS011;46321;48.398;11.754;2023-06-14T06:39:29;5.32;;;3.60;;
60478;SDS011;46321;48.398;11.754;2023-06-14T06:41:54;6.93;;;3.70;;
60478;SDS011;46321;48.398;11.754;2023-06-14T06:44:19;5.60;;;3.35;;
60478;SDS011;46321;48.398;11.754;2023-06-14T06:46:45;7.63;;;3.73;;
60478;SDS011;46321;48.398;11.754;2023-06-14T06:49:10;9.73;;;3.65;;
60478;SDS011;46321;48.398;11.754;2023-06-14T06:51:37;9.95;;;3.63;;
60478;SDS011;46321;48.398;11.754;2023-06-14T06:54:02;7.15;;;3.38;;
60478;SDS011;46321;48.398;11.754;2023-06-14T06:56:27;5.50;;;3.30;;
60478;SDS011;46321;48.398;11.754;2023-06-14T06:58:53;5.22;;;2.92;;
60478;SDS011;46321;48.398;11.754;2023-06-14T07:01:18;6.60;;;3.30;;
60478;SDS011;46321;48.398;11.754;2023-06-14T07:03:44;9.40;;;3.30;;
60478;SDS011;46321;48.398;11.754;2023-06-14T07:06:10;8.65;;;3.28;;
60478;SDS011;46321;48.398;11.754;2023-06-14T07:08:35;4.43;;;3.00;;
60478;SDS011;46321;48.398;11.754;2023-06-14T07:11:01;6.60;;;2.95;;
60478;SDS011;46321;48.398;11.754;2023-06-14T07:13:27;5.03;;;3.15;;
60478;SDS011;46321;48.398;11.754;2023-06-14T07:15:54;6.18;;;3.25;;
60478;SDS011;46321;48.398;11.754;2023-06-14T07:18:20;4.28;;;3.20;;
60478;SDS011;46321;48.398;11.754;2023-06-14T07:20:45;6.40;;;3.05;;
60478;SDS011;46321;48.398;11.754;2023-06-14T07:23:12;5.25;;;3.08;;
60478;SDS011;46321;48.398;11.754;2023-06-14T07:25:37;4.75;;;3.28;;
60478;SDS011;46321;48.398;11.754;2023-06-14T07:28:03;5.57;;;3.53;;
60478;SDS011;46321;48.398;11.754;2023-06-14T07:30:28;7.95;;;3.33;;
60478;SDS011;46321;48.398;11.754;2023-06-14T07:32:55;4.25;;;3.45;;
60478;SDS011;46321;48.398;11.754;2023-06-14T07:35:21;5.18;;;3.22;;
60478;SDS011;46321;48.398;11.754;2023-06-14T07:37:46;6.88;;;2.90;;
60478;SDS011;46321;48.398;11.754;2023-06-14T07:40:12;6.43;;;3.53;;
60478;SDS011;46321;48.398;11.754;2023-06-14T07:42:38;11.23;;;3.30;;
60478;SDS011;46321;48.398;11.754;2023-06-14T07:45:04;6.45;;;3.42;;
60478;SDS011;46321;48.398;11.754;2023-06-14T07:47:29;4.95;;;3.35;;
60478;SDS011;46321;48.398;11.754;2023-06-14T07:49:55;6.78;;;2.83;;
60478;SDS011;46321;48.398;11.754;2023-06-14T07:52:20;4.90;;;3.17;;
60478;SDS011;46321;48.398;11.754;2023-06-14T07:54:45;5.15;;;3.35;;
60478;SDS011;46321;48.398;11.754;2023-06-14T07:57:10;7.50;;;3.60;;
60478;SDS011;46321;48.398;11.754;2023-06-14T07:59:36;4.43;;;3.00;;
60478;SDS011;46321;48.398;11.754;2023-06-14T08:02:01;4.33;;;3.47;;
60478;SDS011;46321;48.398;11.754;2023-06-14T08:04:26;6.40;;;3.30;;
60478;SDS011;46321;48.398;11.754;2023-06-14T08:06:52;8.15;;;3.38;;
60478;SDS011;46321;48.398;11.754;2023-06-14T08:09:17;6.63;;;3.27;;
60478;SDS011;46321;48.398;11.754;2023-06-14T08:11:42;7.22;;;3.67;;
60478;SDS011;46321;48.398;11.754;2023-06-14T08:14:08;4.72;;;3.45;;
60478;SDS011;46321;48.398;11.754;2023-06-14T08:16:33;4.10;;;2.90;;
60478;SDS011;46321;48.398;11.754;2023-06-14T08:18:59;6.50;;;3.35;;
60478;SDS011;46321;48.398;11.754;2023-06-14T08:21:24;4.40;;;3.38;;
60478;SDS011;46321;48.398;11.754;2023-06-14T08:23:54;5.10;;;3.60;;
60478;SDS011;46321;48.398;11.754;2023-06-14T08:26:19;4.70;;;3.42;;
60478;SDS011;46321;48.398;11.754;2023-06-14T08:28:45;5.30;;;3.58;;
60478;SDS011;46321;48.398;11.754;2023-06-14T08:31:11;4.75;;;3.40;;
60478;SDS011;46321;48.398;11.754;2023-06-14T08:33:36;6.03;;;3.00;;
60478;SDS011;46321;48.398;11.754;2023-06-14T08:36:01;7.97;;;3.15;;
60478;SDS011;46321;48.398;11.754;2023-06-14T08:38:27;5.18;;;3.30;;
60478;SDS011;46321;48.398;11.754;2023-06-14T08:40:52;7.23;;;3.03;;
60478;SDS011;46321;48.398;11.754;2023-06-14T08:43:22;4.65;;;3.08;;
60478;SDS011;46321;48.398;11.754;2023-06-14T08:45:47;3.88;;;3.05;;
60478;SDS011;46321;48.398;11.754;2023-06-14T08:48:14;6.82;;;3.00;;
60478;SDS011;46321;48.398;11.754;2023-06-14T08:50:42;6.05;;;2.60;;
60478;SDS011;46321;48.398;11.754;2023-06-14T08:53:11;5.18;;;3.35;;
60478;SDS011;46321;48.398;11.754;2023-06-14T08:55:44;6.43;;;3.00;;
60478;SDS011;46321;48.398;11.754;2023-06-14T08:58:10;5.82;;;2.83;;
60478;SDS011;46321;48.398;11.754;2023-06-14T09:00:39;5.28;;;3.33;;
60478;SDS011;46321;48.398;11.754;2023-06-14T09:03:06;3.95;;;3.00;;
60478;SDS011;46321;48.398;11.754;2023-06-14T09:05:38;6.07;;;3.28;;
60478;SDS011;46321;48.398;11.754;2023-06-14T09:08:03;3.85;;;2.95;;
60478;SDS011;46321;48.398;11.754;2023-06-14T09:10:30;6.18;;;3.00;;
60478;SDS011;46321;48.398;11.754;2023-06-14T09:12:58;4.43;;;2.47;;
60478;SDS011;46321;48.398;11.754;2023-06-14T09:15:25;6.97;;;2.88;;
60478;SDS011;46321;48.398;11.754;2023-06-14T09:17:51;3.75;;;2.80;;
60478;SDS011;46321;48.398;11.754;2023-06-14T09:20:16;5.18;;;3.22;;
60478;SDS011;46321;48.398;11.754;2023-06-14T09:22:43;3.60;;;2.70;;
60478;SDS011;46321;48.398;11.754;2023-06-14T09:25:09;3.47;;;2.65;;
60478;SDS011;46321;48.398;11.754;2023-06-14T09:27:36;5.93;;;2.67;;
60478;SDS011;46321;48.398;11.754;2023-06-14T09:30:04;5.90;;;2.70;;
60478;SDS011;46321;48.398;11.754;2023-06-14T09:32:32;4.05;;;3.00;;
60478;SDS011;46321;48.398;11.754;2023-06-14T09:35:01;3.58;;;2.50;;
60478;SDS011;46321;48.398;11.754;2023-06-14T09:37:27;3.17;;;2.63;;
60478;SDS011;46321;48.398;11.754;2023-06-14T09:39:57;3.95;;;2.58;;
60478;SDS011;46321;48.398;11.754;2023-06-14T09:42:23;5.45;;;3.05;;
60478;SDS011;46321;48.398;11.754;2023-06-14T09:44:53;5.70;;;2.72;;
60478;SDS011;46321;48.398;11.754;2023-06-14T09:47:21;4.20;;;2.92;;
60478;SDS011;46321;48.398;11.754;2023-06-14T09:49:47;3.90;;;2.90;;
60478;SDS011;46321;48.398;11.754;2023-06-14T09:52:14;4.20;;;3.17;;
60478;SDS011;46321;48.398;11.754;2023-06-14T09:54:41;5.18;;;2.90;;
60478;SDS011;46321;48.398;11.754;2023-06-14T09:57:11;6.93;;;3.22;;
60478;SDS011;46321;48.398;11.754;2023-06-14T09:59:40;3.92;;;3.03;;
60478;SDS011;46321;48.398;11.754;2023-06-14T10:02:10;3.75;;;3.15;;
60478;SDS011;46321;48.398;11.754;2023-06-14T10:04:50;6.25;;;3.28;;
60478;SDS011;46321;48.398;11.754;2023-06-14T10:07:22;3.75;;;3.00;;
60478;SDS011;46321;48.398;11.754;2023-06-14T10:09:50;5.38;;;3.30;;
60478;SDS011;46321;48.398;11.754;2023-06-14T10:12:17;6.28;;;3.40;;
60478;SDS011;46321;48.398;11.754;2023-06-14T10:14:49;4.68;;;3.03;;
60478;SDS011;46321;48.398;11.754;2023-06-14T10:17:20;4.25;;;3.58;;
60478;SDS011;46321;48.398;11.754;2023-06-14T10:19:56;4.35;;;3.47;;
60478;SDS011;46321;48.398;11.754;2023-06-14T10:22:41;5.32;;;2.80;;
60478;SDS011;46321;48.398;11.754;2023-06-14T10:25:25;4.55;;;3.03;;
60478;SDS011;46321;48.398;11.754;2023-06-14T10:27:53;3.50;;;2.90;;
60478;SDS011;46321;48.398;11.754;2023-06-14T10:30:26;4.03;;;2.75;;
60478;SDS011;46321;48.398;11.754;2023-06-14T10:33:04;5.53;;;3.17;;
60478;SDS011;46321;48.398;11.754;2023-06-14T10:35:32;7.55;;;3.28;;
60478;SDS011;46321;48.398;11.754;2023-06-14T10:38:11;11.25;;;3.38;;
60478;SDS011;46321;48.398;11.754;2023-06-14T10:40:37;9.10;;;3.33;;
60478;SDS011;46321;48.398;11.754;2023-06-14T10:43:26;3.83;;;3.22;;
60478;SDS011;46321;48.398;11.754;2023-06-14T10:48:42;3.83;;;3.17;;
60478;SDS011;46321;48.398;11.754;2023-06-14T10:51:18;4.45;;;3.25;;
60478;SDS011;46321;48.398;11.754;2023-06-14T10:53:46;5.43;;;3.25;;
60478;SDS011;46321;48.398;11.754;2023-06-14T10:56:28;6.95;;;3.35;;
60478;SDS011;46321;48.398;11.754;2023-06-14T10:58:56;3.97;;;2.88;;
60478;SDS011;46321;48.398;11.754;2023-06-14T11:01:32;4.05;;;3.20;;
60478;SDS011;46321;48.398;11.754;2023-06-14T11:04:08;6.03;;;3.03;;
60478;SDS011;46321;48.398;11.754;2023-06-14T11:06:44;5.53;;;2.90;;
60478;SDS011;46321;48.398;11.754;2023-06-14T11:12:19;5.38;;;3.17;;
60478;SDS011;46321;48.398;11.754;2023-06-14T11:14:46;5.05;;;3.33;;
60478;SDS011;46321;48.398;11.754;2023-06-14T11:17:12;5.95;;;3.22;;
60478;SDS011;46321;48.398;11.754;2023-06-14T11:19:38;4.07;;;2.73;;
60478;SDS011;46321;48.398;11.754;2023-06-14T11:22:03;4.80;;;2.93;;
60478;SDS011;46321;48.398;11.754;2023-06-14T11:24:28;6.38;;;3.33;;
60478;SDS011;46321;48.398;11.754;2023-06-14T11:26:54;3.25;;;2.78;;
60478;SDS011;46321;48.398;11.754;2023-06-14T11:29:21;5.20;;;2.85;;
60478;SDS011;46321;48.398;11.754;2023-06-14T11:31:46;3.97;;;3.10;;
60478;SDS011;46321;48.398;11.754;2023-06-14T11:34:12;6.20;;;3.17;;
60478;SDS011;46321;48.398;11.754;2023-06-14T11:36:38;4.93;;;3.55;;
60478;SDS011;46321;48.398;11.754;2023-06-14T11:39:04;7.03;;;3.08;;
60478;SDS011;46321;48.398;11.754;2023-06-14T11:41:39;4.85;;;3.13;;
60478;SDS011;46321;48.398;11.754;2023-06-14T11:44:05;3.85;;;2.97;;
60478;SDS011;46321;48.398;11.754;2023-06-14T11:46:32;5.68;;;3.30;;
60478;SDS011;46321;48.398;11.754;2023-06-14T11:48:57;5.18;;;3.10;;
60478;SDS011;46321;48.398;11.754;2023-06-14T11:51:23;11.02;;;3.15;;
60478;SDS011;46321;48.398;11.754;2023-06-14T11:53:48;5.38;;;3.28;;
60478;SDS011;46321;48.398;11.754;2023-06-14T11:56:14;3.65;;;3.20;;
60478;SDS011;46321;48.398;11.754;2023-06-14T11:58:40;6.78;;;3.47;;
60478;SDS011;46321;48.398;11.754;2023-06-14T12:01:08;4.07;;;3.17;;
60478;SDS011;46321;48.398;11.754;2023-06-14T12:03:33;5.67;;;3.50;;
60478;SDS011;46321;48.398;11.754;2023-06-14T12:06:02;4.65;;;3.20;;
60478;SDS011;46321;48.398;11.754;2023-06-14T12:08:38;7.47;;;3.05;;
60478;SDS011;46321;48.398;11.754;2023-06-14T12:11:11;5.18;;;2.83;;
60478;SDS011;46321;48.398;11.754;2023-06-14T12:13:38;4.47;;;3.28;;
60478;SDS011;46321;48.398;11.754;2023-06-14T12:16:06;4.07;;;3.00;;
60478;SDS011;46321;48.398;11.754;2023-06-14T12:18:33;4.60;;;3.40;;
60478;SDS011;46321;48.398;11.754;2023-06-14T12:20:59;5.82;;;3.35;;
60478;SDS011;46321;48.398;11.754;2023-06-14T12:23:46;3.97;;;3.30;;
60478;SDS011;46321;48.398;11.754;2023-06-14T12:26:17;5.28;;;3.15;;
60478;SDS011;46321;48.398;11.754;2023-06-14T12:28:46;5.47;;;2.85;;
60478;SDS011;46321;48.398;11.754;2023-06-14T12:31:13;5.28;;;3.00;;
60478;SDS011;46321;48.398;11.754;2023-06-14T12:33:40;4.68;;;3.30;;
60478;SDS011;46321;48.398;11.754;2023-06-14T12:36:09;4.90;;;3.03;;
60478;SDS011;46321;48.398;11.754;2023-06-14T12:38:35;6.93;;;3.05;;
60478;SDS011;46321;48.398;11.754;2023-06-14T12:41:01;5.32;;;2.95;;
60478;SDS011;46321;48.398;11.754;2023-06-14T12:43:26;6.05;;;3.10;;
60478;SDS011;46321;48.398;11.754;2023-06-14T12:45:52;4.90;;;2.92;;
60478;SDS011;46321;48.398;11.754;2023-06-14T12:48:17;5.35;;;2.95;;
60478;SDS011;46321;48.398;11.754;2023-06-14T12:50:43;6.07;;;3.07;;
60478;SDS011;46321;48.398;11.754;2023-06-14T12:53:08;6.73;;;3.40;;
60478;SDS011;46321;48.398;11.754;2023-06-14T12:55:33;5.05;;;3.33;;
60478;SDS011;46321;48.398;11.754;2023-06-14T12:57:59;4.63;;;3.42;;
60478;SDS011;46321;48.398;11.754;2023-06-14T13:00:24;5.30;;;3.20;;
60478;SDS011;46321;48.398;11.754;2023-06-14T13:02:54;3.47;;;3.00;;
60478;SDS011;46321;48.398;11.754;2023-06-14T13:05:20;5.50;;;3.60;;
60478;SDS011;46321;48.398;11.754;2023-06-14T13:07:45;4.43;;;3.03;;
60478;SDS011;46321;48.398;11.754;2023-06-14T13:10:10;5.63;;;2.87;;
60478;SDS011;46321;48.398;11.754;2023-06-14T13:12:35;3.63;;;3.17;;
60478;SDS011;46321;48.398;11.754;2023-06-14T13:15:01;6.55;;;3.30;;
60478;SDS011;46321;48.398;11.754;2023-06-14T13:17:26;6.70;;;3.20;;
60478;SDS011;46321;48.398;11.754;2023-06-14T13:19:51;3.42;;;2.88;;
60478;SDS011;46321;48.398;11.754;2023-06-14T13:22:17;4.50;;;3.40;;
60478;SDS011;46321;48.398;11.754;2023-06-14T13:24:42;4.05;;;3.03;;
60478;SDS011;46321;48.398;11.754;2023-06-14T13:27:07;4.38;;;3.35;;
60478;SDS011;46321;48.398;11.754;2023-06-14T13:29:33;3.83;;;3.40;;
60478;SDS011;46321;48.398;11.754;2023-06-14T13:32:00;6.00;;;3.20;;
60478;SDS011;46321;48.398;11.754;2023-06-14T13:34:26;4.50;;;3.50;;
60478;SDS011;46321;48.398;11.754;2023-06-14T13:36:51;4.63;;;3.25;;
60478;SDS011;46321;48.398;11.754;2023-06-14T13:39:16;9.87;;;3.67;;
60478;SDS011;46321;48.398;11.754;2023-06-14T13:41:42;3.87;;;3.00;;
60478;SDS011;46321;48.398;11.754;2023-06-14T13:44:07;7.32;;;3.35;;
60478;SDS011;46321;48.398;11.754;2023-06-14T13:46:33;4.25;;;3.30;;
60478;SDS011;46321;48.398;11.754;2023-06-14T13:48:58;8.85;;;3.10;;
60478;SDS011;46321;48.398;11.754;2023-06-14T13:51:25;6.53;;;3.55;;
60478;SDS011;46321;48.398;11.754;2023-06-14T13:53:51;4.32;;;3.28;;
60478;SDS011;46321;48.398;11.754;2023-06-14T13:56:18;5.18;;;3.25;;
60478;SDS011;46321;48.398;11.754;2023-06-14T13:58:43;5.22;;;3.53;;
60478;SDS011;46321;48.398;11.754;2023-06-14T14:01:09;4.70;;;3.50;;
60478;SDS011;46321;48.398;11.754;2023-06-14T14:03:35;5.83;;;3.53;;
60478;SDS011;46321;48.398;11.754;2023-06-14T14:06:01;4.60;;;3.15;;
60478;SDS011;46321;48.398;11.754;2023-06-14T14:08:27;7.20;;;3.08;;
60478;SDS011;46321;48.398;11.754;2023-06-14T14:10:52;8.63;;;3.22;;
60478;SDS011;46321;48.398;11.754;2023-06-14T14:13:18;4.78;;;3.28;;
60478;SDS011;46321;48.398;11.754;2023-06-14T14:15:43;5.03;;;3.30;;
60478;SDS011;46321;48.398;11.754;2023-06-14T14:18:08;3.95;;;3.30;;
60478;SDS011;46321;48.398;11.754;2023-06-14T14:20:34;5.35;;;3.35;;
60478;SDS011;46321;48.398;11.754;2023-06-14T14:22:59;4.90;;;3.63;;
60478;SDS011;46321;48.398;11.754;2023-06-14T14:25:25;5.23;;;3.17;;
60478;SDS011;46321;48.398;11.754;2023-06-14T14:27:50;7.63;;;3.50;;
60478;SDS011;46321;48.398;11.754;2023-06-14T14:30:15;4.30;;;3.40;;
60478;SDS011;46321;48.398;11.754;2023-06-14T14:32:42;5.55;;;3.13;;
60478;SDS011;46321;48.398;11.754;2023-06-14T14:35:08;6.22;;;3.53;;
60478;SDS011;46321;48.398;11.754;2023-06-14T14:37:33;4.80;;;3.50;;
60478;SDS011;46321;48.398;11.754;2023-06-14T14:39:59;4.35;;;3.35;;